Tiempo atmosférico en la estación meteorológica de La Aldea de San Nicolás, Las Palmas (318 m.)



Fecha
DESCASC
Temp. máxima en grados centígrados (hora)
DESCASC
Temp. mínima en grados centígrados (hora)
DESCASC
Temp. media en grados centígrados
DESCASC
Racha de viento máxima en m/sg (hora)
DESCASC
Velocidad máxima media en intervalos de 10 minutos(hora)
DESCASC
Precipitaciones diarias en mm
DESCASC
Precipitaciones de 00:00 a 06:00 en mm
DESCASC
Precipitaciones de 06:00 a 12:00 en mm
DESCASC
Precipitaciones de 12:00 a 18:00 en mm
DESCASC
Precipitaciones de 18:00 a 24:00 en mm
DESCASC
26-11-2020 22.2 (14:30) 16.9 (05:10) 19.6 18.06 (22:40) 8.89 (21:30) 0 0 0 0 0
25-11-2020 26.7 (13:20) 13.1 (07:30) 19.9 17.22 (09:00) 6.11 (08:20) 0 0 0 0 0
24-11-2020 26.8 (12:50) 14.6 (04:20) 20.7 7.78 (15:10) 5.28 (14:30) 0 0 0 0 0
23-11-2020 27.3 (14:00) 13.8 (07:10) 20.5 6.94 (16:40) 4.72 (16:40) 0 0 0 0 0
22-11-2020 26.7 (14:20) 14 (00:00) 20.4 6.67 (11:50) 4.44 (11:50) 0 0 0 0 0
21-11-2020 26.7 (14:00) 14 (00:00) 20.4 5.28 (13:40) 3.61 (13:40) 0 0 0 0 0
20-11-2020 26.7 (16:40) 14.4 (00:00) 20.6 8.06 (16:20) 5.28 (16:20) 0 0 0 0 0
19-11-2020 26.3 (12:20) 18.2 (00:00) 22.3 15.83 (04:10) 8.89 (04:10) 0 0 0 0 0
18-11-2020 30.7 (13:50) 16.3 (00:00) 23.5 15 (18:30) 8.89 (18:40) 0 0 0 0 0
17-11-2020 30.5 (16:50) 18.9 (00:00) 24.7 6.67 (12:00) 5 (11:30) 0 0 0 0 0
16-11-2020 28 (12:40) 15.8 (00:00) 21.9 7.78 (12:00) 5.83 (11:40) 0 0 0 0 0
15-11-2020 31.3 (13:00) 18.5 (00:00) 24.9 10.83 (14:50) 7.78 (14:50) 0 0 0 0 0
14-11-2020 31.4 (11:50) 18 (00:00) 24.7 14.72 (13:10) 8.89 (22:50) 0 0 0 0 0
13-11-2020 24.1 (15:40) 19.3 (00:00) 21.7 7.22 (17:10) 3.89 (13:00) 0 0 0 0 0
12-11-2020 26 (15:00) 19.4 (00:00) 22.7 9.72 (04:10) 5.83 (13:20) 0 0 0 0 0
11-11-2020 24.4 (16:00) 15.7 (00:00) 20 11.67 (19:20) 6.94 (21:30) 0 0 0 0 0
10-11-2020 24.7 (14:00) 15.4 (00:00) 20.1 7.5 (16:20) 4.72 (10:50) 0 0 0 0 0
09-11-2020 26.4 (13:30) 14.7 (00:00) 20.5 14.44 (16:20) 8.06 (16:50) 0 0 0 0 0
08-11-2020 25.4 (15:00) 15.3 (00:00) 20.3 10.56 (15:10) 6.39 (13:00) 0 0 0 0 0
07-11-2020 25.6 (14:00) 15 (00:00) 20.3 6.39 (13:00) 4.72 (15:10) 0 0 0 0 0
06-11-2020 26.7 (15:10) 18.3 (00:00) 22.5 14.72 (04:40) 6.11 (07:50) 0 0 0 0 0
05-11-2020 26.4 (12:50) 15.9 (00:00) 21.1 11.39 (01:00) 6.39 (01:30) 0 0 0 0 0
04-11-2020 25.7 (12:40) 16.3 (00:00) 21 17.22 (15:30) 11.11 (18:00) 0 0 0 0 0
03-11-2020 26.1 (14:50) 18.9 (00:00) 22.5 18.89 (10:20) 11.11 (11:10) 0 0 0 0 0
02-11-2020 25.8 (14:10) 16.1 (00:00) 20.9 20.83 (12:40) 11.39 (17:20) 0 0 0 0 0
01-11-2020 32.9 (11:50) 16.3 (00:00) 24.6 17.5 (15:10) 11.11 (14:50) 0 0 0 0 0
31-10-2020 28.9 (13:20) 14.9 (00:00) 21.9 6.11 (11:30) 4.72 (11:40) 0 0 0 0 0
30-10-2020 26.1 (13:30) 17.6 (00:00) 21.9 14.17 (02:50) 7.22 (14:30) 0 0 0 0 0
29-10-2020 26.6 (12:50) 18.6 (00:00) 22.6 17.22 (18:00) 9.17 (20:00) 0 0 0 0 0
28-10-2020 25.4 (15:10) 20.9 (00:00) 23.1 18.89 (16:40) 10 (17:50) 0 0 0 0 0

Gráficas

Temp. máximas Temp. mínimas Temp. medias Precipitaciones Rachas de viento máximas Velocidades máximas media en intervalos de 10 minutos

Datos horarios

Fecha y hora oficial Temperatura (ºC) Velocidad del viento (km/h) Dirección del viento Racha (km/h) Dirección de racha Precipitación (mm) Presión (hPa) Tendencia (hPa) Humedad (%)
2020-11-26 23:00:00 15.6 35 Norte 66 Norte 0 -- -- 63
2020-11-26 22:00:00 15.6 31 Norte 62 Norte 0 -- -- 63
2020-11-26 21:00:00 16 30 Nordeste 54 Nordeste 0 -- -- 62
2020-11-26 20:00:00 16.1 30 Nordeste 68 Nordeste 0 -- -- 64
2020-11-26 19:00:00 16.3 28 Norte 57 Norte 0 -- -- 59
2020-11-26 18:00:00 16.2 17 Nordeste 45 Nordeste 0 -- -- 67
2020-11-26 17:00:00 16.4 23 Norte 62 Norte 0 -- -- 68
2020-11-26 16:00:00 17.4 24 Nordeste 65 Nordeste 0 -- -- 58
2020-11-26 15:00:00 17 19 Nordeste 41 Sudeste 0.2 -- -- 62
2020-11-26 14:00:00 16.1 18 Norte 36 Nordeste 0 -- -- 90
2020-11-26 13:00:00 17.2 17 Norte 39 Nordeste 0 -- -- 66
2020-11-26 12:00:00 16.2 22 Nordeste 42 Nordeste 0.2 -- -- 69
2020-11-26 11:00:00 17 30 Nordeste 50 Nordeste 0 -- -- 61
2020-11-26 10:00:00 16.3 19 Nordeste 42 Noroeste 0 -- -- 64
2020-11-26 09:00:00 16.1 18 Nordeste 37 Nordeste 0 -- -- 62
2020-11-26 08:00:00 15.5 8 Este 39 Norte 0.2 -- -- 63
2020-11-26 07:00:00 14.7 12 Norte 37 Nordeste 0 -- -- 73
2020-11-26 06:00:00 14.7 20 Norte 41 Nordeste 0 -- -- 76
2020-11-26 05:00:00 13.6 20 Norte 48 Nordeste 0.2 -- -- 92
2020-11-26 04:00:00 14.8 21 Norte 39 Norte 0 -- -- 81
2020-11-26 03:00:00 15.2 22 Norte 41 Norte 0 -- -- 73
2020-11-26 02:00:00 15.5 27 Norte 44 Norte 0 -- -- 72
2020-11-26 01:00:00 16.2 31 Norte 47 Norte 0 -- -- 67
2020-11-26 00:00:00 15.9 25 Norte 55 Norte 0 -- -- 84
2020-11-25 23:00:00 14.1 30 Norte 63 Norte 0.2 -- -- 95
2020-11-25 22:00:00 14.6 25 Nordeste 48 Nordeste 0.2 -- -- 96
2020-11-25 21:00:00 15.4 19 Norte 36 Norte 0.4 -- -- 95
2020-11-25 20:00:00 15.1 19 Norte 51 Noroeste 0.4 -- -- 96
2020-11-25 19:00:00 16.5 21 Norte 51 Norte 0.2 -- -- 92
2020-11-25 18:00:00 18.7 21 Norte 48 Norte 0 -- -- 72
2020-11-25 17:00:00 20.9 18 Norte 44 Noroeste 0 -- -- 51
2020-11-25 16:00:00 21.4 25 Norte 54 Norte 0 -- -- 52
2020-11-25 15:00:00 21.4 32 Norte 46 Noroeste 0 -- -- 52
2020-11-25 14:00:00 21.6 16 Norte 43 Norte 0 -- -- 57
2020-11-25 13:00:00 21.4 26 Norte 45 Norte 0 -- -- 57
2020-11-25 12:00:00 22.7 14 Nordeste 22 Nordeste 0 -- -- 43
2020-11-25 11:00:00 21.3 14 Este 24 Noroeste 0 -- -- 59
2020-11-25 10:00:00 20.3 17 Norte 35 Norte 0 -- -- 61
2020-11-25 09:00:00 19.3 12 Norte 30 Nordeste 0 -- -- 47
2020-11-25 08:00:00 18.6 5 Norte 13 Nordeste 0 -- -- 28
2020-11-25 07:00:00 19 8 Norte 12 Nordeste 0 -- -- 28
2020-11-25 06:00:00 18.9 7 Norte 13 Norte 0 -- -- 28
2020-11-25 05:00:00 19.1 6 Nordeste 14 Norte 0 -- -- 29
2020-11-25 04:00:00 18.5 10 Norte 14 Norte 0 -- -- 27
2020-11-25 03:00:00 19.3 6 Nordeste 14 Norte 0 -- -- 27
2020-11-25 02:00:00 18.7 9 Norte 13 Nordeste 0 -- -- 27
2020-11-25 01:00:00 19.2 4 Norte 10 Norte 0 -- -- 27
2020-11-25 00:00:00 19.6 4 Norte 13 Norte 0 -- -- 27
2020-11-24 23:00:00 19.3 3 Sudeste 10 Norte 0 -- -- 30
2020-11-24 22:00:00 20.7 0 Calma 11 Norte 0 -- -- 34
2020-11-24 21:00:00 20.7 9 Norte 11 Norte 0 -- -- 33
2020-11-24 20:00:00 20.9 6 Nordeste 8 Nordeste 0 -- -- 32
2020-11-24 19:00:00 20.7 3 Norte 22 Sur 0 -- -- 34
2020-11-24 18:00:00 21.7 12 Sur 18 Sur 0 -- -- 30
2020-11-24 17:00:00 23.3 14 Sur 26 Sur 0 -- -- 28
2020-11-24 16:00:00 24.7 13 Norte 27 Noroeste 0 -- -- 30
2020-11-24 15:00:00 27.4 12 Sudoeste 26 Sudoeste 0 -- -- 18
2020-11-24 14:00:00 27 16 Sur 33 Sur 0 -- -- 19
2020-11-24 13:00:00 27.8 17 Sur 31 Sur 0 -- -- 15
2020-11-24 12:00:00 26.4 10 Oeste 23 Sudoeste 0 -- -- 16
2020-11-24 11:00:00 24.9 7 Sur 14 Sur 0 -- -- 18
2020-11-24 10:00:00 22.5 0 Calma 6 Sudeste 0 -- -- 24
2020-11-24 09:00:00 21.4 4 Sur 10 Norte 0 -- -- 26
2020-11-24 08:00:00 20.1 3 Norte 9 Norte 0 -- -- 26
2020-11-24 07:00:00 19.4 6 Nordeste 9 Norte 0 -- -- 28
2020-11-24 06:00:00 19.3 4 Norte 8 Norte 0 -- -- 29
2020-11-24 05:00:00 19.4 3 Norte 11 Norte 0 -- -- 33
2020-11-24 04:00:00 20 5 Sur 10 Nordeste 0 -- -- 31
2020-11-24 03:00:00 20.7 6 Nordeste 12 Norte 0 -- -- 30
2020-11-24 02:00:00 22 5 Nordeste 17 Este 0 -- -- 28
2020-11-24 01:00:00 21.6 2 Nordeste 10 Norte 0 -- -- 28
2020-11-24 00:00:00 22.3 4 Norte 15 Noroeste 0 -- -- 26
2020-11-23 23:00:00 22.9 5 Nordeste 22 Oeste 0 -- -- 25
2020-11-23 22:00:00 22.2 7 Noroeste 18 Noroeste 0 -- -- 27
2020-11-23 21:00:00 21.3 4 Norte 17 Noroeste 0 -- -- 35
2020-11-23 20:00:00 20.6 10 Norte 14 Norte 0 -- -- 42
2020-11-23 19:00:00 21.6 0 Calma 14 Sur 0 -- -- 41
2020-11-23 18:00:00 23 8 Sur 16 Nordeste 0 -- -- 34
2020-11-23 17:00:00 25.6 13 Sudoeste 28 Sudoeste 0 -- -- 25
2020-11-23 16:00:00 25.9 13 Oeste 31 Sudoeste 0 -- -- 25
2020-11-23 15:00:00 26 11 Oeste 40 Sur 0 -- -- 25
2020-11-23 14:00:00 27.3 20 Sudoeste 37 Sudoeste 0 -- -- 24
2020-11-23 13:00:00 27.1 16 Sudoeste 32 Sudoeste 0 -- -- 25
2020-11-23 12:00:00 26.2 14 Sudoeste 33 Sudoeste 0 -- -- 27
2020-11-23 11:00:00 25.7 9 Sur 23 Sur 0 -- -- 26
2020-11-23 10:00:00 24.3 9 Noroeste 18 Noroeste 0 -- -- 27
2020-11-23 09:00:00 22.7 8 Sudoeste 27 Noroeste 0 -- -- 30
2020-11-23 08:00:00 22.2 9 Norte 29 Noroeste 0 -- -- 30
2020-11-23 07:00:00 22.6 9 Norte 28 Noroeste 0 -- -- 30
2020-11-23 06:00:00 22.5 8 Norte 21 Nordeste 0 -- -- 29
2020-11-23 05:00:00 22.3 8 Norte 22 Noroeste 0 -- -- 29
2020-11-23 04:00:00 19.8 5 Nordeste 12 Norte 0 -- -- 36
2020-11-23 03:00:00 19.6 4 Nordeste 9 Este 0 -- -- 37
2020-11-23 02:00:00 20 3 Norte 10 Este 0 -- -- 36
2020-11-23 01:00:00 20.4 5 Norte 10 Este 0 -- -- 37
2020-11-23 00:00:00 20.4 4 Nordeste 12 Norte 0 -- -- 41
2020-11-22 23:00:00 22.6 9 Norte 18 Este 0 -- -- 27
2020-11-22 22:00:00 20.3 9 Norte 11 Norte 0 -- -- 54
2020-11-22 21:00:00 20.3 3 Nordeste 11 Sur 0 -- -- 65
2020-11-22 20:00:00 20.9 4 Sur 10 Sudeste 0 -- -- 53
2020-11-22 19:00:00 21.7 5 Sur 10 Sur 0 -- -- 51
2020-11-22 18:00:00 22.6 6 Sur 19 Sur 0 -- -- 49
2020-11-22 17:00:00 26 14 Sur 27 Sur 0 -- -- 39
2020-11-22 16:00:00 26.8 19 Sur 27 Sur 0 -- -- 40
2020-11-22 15:00:00 27.7 18 Sur 28 Sur 0 -- -- 36
2020-11-22 14:00:00 28.6 19 Sur 28 Sur 0 -- -- 31
2020-11-22 13:00:00 28.2 17 Sur 29 Sur 0 -- -- 31
2020-11-22 12:00:00 28.1 21 Sur 31 Sur 0 -- -- 28
2020-11-22 11:00:00 26.2 12 Sur 18 Sur 0 -- -- 30
2020-11-22 10:00:00 24.1 7 Norte 18 Norte 0 -- -- 27
2020-11-22 09:00:00 22.7 5 Nordeste 15 Nordeste 0 -- -- 29
2020-11-22 08:00:00 21.9 5 Oeste 16 Este 0 -- -- 30
2020-11-22 07:00:00 22.1 13 Norte 24 Norte 0 -- -- 31
2020-11-22 06:00:00 20.9 7 Nordeste 18 Norte 0 -- -- 33
2020-11-22 05:00:00 20.3 9 Norte 23 Nordeste 0 -- -- 34
2020-11-22 04:00:00 22 6 Nordeste 39 Norte 0 -- -- 32
2020-11-22 03:00:00 22.4 18 Norte 32 Norte 0 -- -- 32
2020-11-22 02:00:00 22 9 Norte 16 Norte 0 -- -- 33
2020-11-22 01:00:00 21.4 7 Noroeste 15 Oeste 0 -- -- 34
2020-11-22 00:00:00 20 4 Nordeste 15 Norte 0 -- -- 38
2020-11-21 23:00:00 20.9 9 Norte 14 Norte 0 -- -- 36
2020-11-21 22:00:00 22.2 4 Noroeste 17 Noroeste 0 -- -- 32
2020-11-21 21:00:00 22.9 10 Norte 20 Norte 0 -- -- 31
2020-11-21 20:00:00 20.7 4 Sudoeste 9 Sudeste 0 -- -- 44
2020-11-21 19:00:00 21.5 4 Sur 15 Sur 0 -- -- 43
2020-11-21 18:00:00 23.1 11 Sur 23 Sur 0 -- -- 41
2020-11-21 17:00:00 26.8 16 Sur 26 Sur 0 -- -- 35
2020-11-21 16:00:00 27.7 18 Sur 32 Sur 0 -- -- 31
2020-11-21 15:00:00 28.9 19 Sur 32 Sur 0 -- -- 26
2020-11-21 14:00:00 28.4 22 Sur 33 Sur 0 -- -- 28
2020-11-21 13:00:00 28 21 Sur 31 Sur 0 -- -- 33
2020-11-21 12:00:00 26.9 12 Sudoeste 31 Sur 0 -- -- 27
2020-11-21 11:00:00 25.6 9 Sudoeste 34 Noroeste 0 -- -- 28
2020-11-21 10:00:00 24.3 13 Norte 37 Noroeste 0 -- -- 28
2020-11-21 09:00:00 23 9 Norte 20 Nordeste 0 -- -- 28
2020-11-21 08:00:00 20.6 8 Norte 16 Norte 0 -- -- 31
2020-11-21 07:00:00 19.9 3 Norte 12 Norte 0 -- -- 31
2020-11-21 06:00:00 20.3 8 Norte 35 Nordeste 0 -- -- 30
2020-11-21 05:00:00 23.3 15 Nordeste 33 Norte 0 -- -- 26
2020-11-21 04:00:00 22.5 11 Norte 19 Nordeste 0 -- -- 26
2020-11-21 03:00:00 21 6 Nordeste 13 Nordeste 0 -- -- 30
2020-11-21 02:00:00 21.1 3 Norte 6 Norte 0 -- -- 30
2020-11-21 01:00:00 21.6 4 Norte 10 Nordeste 0 -- -- 29
2020-11-21 00:00:00 22.3 6 Nordeste 10 Nordeste 0 -- -- 29
2020-11-20 23:00:00 21.5 7 Norte 12 Nordeste 0 -- -- 32
2020-11-20 22:00:00 21.1 0 Calma 10 Norte 0 -- -- 36
2020-11-20 21:00:00 20.7 0 Calma 8 Norte 0 -- -- 48
2020-11-20 20:00:00 21.1 4 Norte 8 Norte 0 -- -- 49
2020-11-20 19:00:00 21.5 4 Norte 14 Sur 0 -- -- 51
2020-11-20 18:00:00 23.5 7 Sur 18 Sur 0 -- -- 46
2020-11-20 17:00:00 26.4 15 Sur 32 Sur 0 -- -- 41
2020-11-20 16:00:00 27.8 23 Sur 38 Sur 0 -- -- 37
2020-11-20 15:00:00 29.1 23 Sudoeste 47 Sur 0 -- -- 29
2020-11-20 14:00:00 29 21 Sur 41 Sur 0 -- -- 29
2020-11-20 13:00:00 28.4 20 Sudoeste 40 Sudoeste 0 -- -- 32
2020-11-20 12:00:00 27.2 14 Sudoeste 28 Sur 0 -- -- 36
2020-11-20 11:00:00 25.1 12 Sur 23 Sur 0 -- -- 51
2020-11-20 10:00:00 22.6 4 Sudoeste 13 Sudeste 0 -- -- 45
2020-11-20 09:00:00 18.4 4 Nordeste 18 Nordeste 0 -- -- 56
2020-11-20 08:00:00 19.1 11 Nordeste 17 Este 0 -- -- 44
2020-11-20 07:00:00 16.7 8 Norte 14 Norte 0 -- -- 75
2020-11-20 06:00:00 16.9 0 Calma 10 Norte 0 -- -- 60
2020-11-20 05:00:00 17.5 5 Norte 9 Norte 0 -- -- 50
2020-11-20 04:00:00 17.3 4 Sur 8 Norte 0 -- -- 57
2020-11-20 03:00:00 17.4 2 Norte 8 Norte 0 -- -- 68
2020-11-20 02:00:00 17.2 0 Calma 9 Norte 0 -- -- 84
2020-11-20 01:00:00 17.3 0 Calma 8 Nordeste 0 -- -- 83
2020-11-20 00:00:00 17.8 5 Norte 8 Norte 0 -- -- 83
2020-11-19 23:00:00 18.2 0 Calma 7 Norte 0 -- -- 82
2020-11-19 22:00:00 18.2 0 Calma 4 Norte 0 -- -- 88
2020-11-19 21:00:00 18.8 0 Calma 2 Sur 0 -- -- 88
2020-11-19 20:00:00 19.4 0 Calma 7 Sudoeste 0 -- -- 84
2020-11-19 19:00:00 20.1 4 Sudoeste 15 Sur 0 -- -- 80
2020-11-19 18:00:00 21.3 13 Sur 20 Sur 0 -- -- 74
2020-11-19 17:00:00 24.1 16 Sur 26 Sur 0 -- -- 66
2020-11-19 16:00:00 25.9 18 Sur 27 Sur 0 -- -- 57
2020-11-19 15:00:00 26.7 16 Sur 30 Sur 0 -- -- 55
2020-11-19 14:00:00 27 19 Sur 26 Sur 0 -- -- 56
2020-11-19 13:00:00 26.4 17 Sur 27 Sur 0 -- -- 57
2020-11-19 12:00:00 25.1 19 Sur 28 Sur 0 -- -- 64
2020-11-19 11:00:00 24.6 11 Sur 19 Sur 0 -- -- 64
2020-11-19 10:00:00 23.2 8 Sur 35 Nordeste 0 -- -- 57
2020-11-19 09:00:00 20.8 15 Norte 44 Nordeste 0 -- -- 59
2020-11-19 08:00:00 20.2 26 Nordeste 40 Nordeste 0 -- -- 63
2020-11-19 07:00:00 20.4 20 Nordeste 40 Nordeste 0 -- -- 60
2020-11-19 06:00:00 20.4 16 Norte 32 Nordeste 0 -- -- 60
2020-11-19 05:00:00 20.5 18 Norte 27 Norte 0 -- -- 58
2020-11-19 04:00:00 20.8 19 Norte 28 Nordeste 0 -- -- 56
2020-11-19 03:00:00 20.9 22 Nordeste 36 Nordeste 0 -- -- 59
2020-11-19 02:00:00 21.6 23 Nordeste 32 Nordeste 0 -- -- 56
2020-11-19 01:00:00 21.7 17 Norte 38 Nordeste 0 -- -- 55
2020-11-19 00:00:00 22.1 17 Norte 35 Nordeste 0 -- -- 50
2020-11-18 23:00:00 21.8 22 Nordeste 35 Nordeste 0 -- -- 59
2020-11-18 22:00:00 22.6 16 Norte 33 Nordeste 0 -- -- 53
2020-11-18 21:00:00 22.6 18 Norte 39 Nordeste 0 -- -- 56
2020-11-18 20:00:00 22.1 21 Nordeste 38 Nordeste 0 -- -- 63
2020-11-18 19:00:00 23.1 20 Norte 28 Norte 0 -- -- 58
2020-11-18 18:00:00 27.5 7 Norte 24 Norte 0 -- -- 25
2020-11-18 17:00:00 28.8 16 Norte 24 Norte 0 -- -- 23
2020-11-18 16:00:00 29.4 14 Norte 22 Norte 0 -- -- 23
2020-11-18 15:00:00 31.7 17 Sur 27 Sur 0 -- -- 23
2020-11-18 14:00:00 31.7 17 Sur 28 Sur 0 -- -- 23
2020-11-18 13:00:00 31.3 14 Sur 23 Sur 0 -- -- 24
2020-11-18 12:00:00 30 16 Sur 23 Sur 0 -- -- 28
2020-11-18 11:00:00 28.9 12 Sur 17 Sudoeste 0 -- -- 27
2020-11-18 10:00:00 28.4 5 Nordeste 15 Sudeste 0 -- -- 24
2020-11-18 09:00:00 24.9 4 Nordeste 9 Este 0 -- -- 28
2020-11-18 08:00:00 24.4 5 Nordeste 13 Norte 0 -- -- 28
2020-11-18 07:00:00 24.9 5 Nordeste 11 Nordeste 0 -- -- 27
2020-11-18 06:00:00 23.7 2 Nordeste 9 Nordeste 0 -- -- 29
2020-11-18 05:00:00 23.6 5 Nordeste 13 Norte 0 -- -- 29
2020-11-18 04:00:00 23.5 5 Nordeste 11 Norte 0 -- -- 29
2020-11-18 03:00:00 23.7 2 Norte 13 Norte 0 -- -- 29
2020-11-18 02:00:00 24.4 5 Norte 14 Norte 0 -- -- 27
2020-11-18 01:00:00 25 6 Nordeste 15 Nordeste 0 -- -- 27
2020-11-18 00:00:00 24.8 5 Norte 15 Norte 0 -- -- 28
2020-11-17 23:00:00 26.8 10 Nordeste 17 Norte 0 -- -- 25
2020-11-17 22:00:00 25.8 9 Norte 17 Norte 0 -- -- 27
2020-11-17 21:00:00 25.5 10 Norte 14 Norte 0 -- -- 30
2020-11-17 20:00:00 25.6 7 Norte 13 Norte 0 -- -- 31
2020-11-17 19:00:00 25.3 5 Norte 8 Sur 0 -- -- 37
2020-11-17 18:00:00 26.6 3 Sur 17 Sur 0 -- -- 35
2020-11-17 17:00:00 29.5 12 Sur 27 Sur 0 -- -- 32
2020-11-17 16:00:00 31.7 19 Sur 34 Sur 0 -- -- 29
2020-11-17 15:00:00 32.5 26 Sur 46 Sur 0 -- -- 24
2020-11-17 14:00:00 31.8 21 Sudoeste 58 Sur 0 -- -- 23
2020-11-17 13:00:00 31.3 21 Sudoeste 46 Sudoeste 0 -- -- 22
2020-11-17 12:00:00 31.5 19 Sudoeste 37 Sur 0 -- -- 23
2020-11-17 11:00:00 30.2 15 Sudoeste 29 Sur 0 -- -- 22
2020-11-17 10:00:00 28.2 4 Sur 9 Noroeste 0 -- -- 24
2020-11-17 09:00:00 26 5 Norte 10 Norte 0 -- -- 25
2020-11-17 08:00:00 26 3 Sur 12 Nordeste 0 -- -- 25
2020-11-17 07:00:00 27 8 Norte 22 Noroeste 0 -- -- 25
2020-11-17 06:00:00 27.1 17 Noroeste 29 Norte 0 -- -- 25
2020-11-17 05:00:00 24.6 6 Norte 11 Nordeste 0 -- -- 28
2020-11-17 04:00:00 25.3 3 Este 13 Sur 0 -- -- 27
2020-11-17 03:00:00 25.5 3 Nordeste 26 Sur 0 -- -- 27
2020-11-17 02:00:00 27.6 8 Noroeste 19 Noroeste 0 -- -- 24
2020-11-17 01:00:00 25.3 3 Nordeste 9 Norte 0 -- -- 26
2020-11-17 00:00:00 24.4 4 Norte 11 Norte 0 -- -- 27
2020-11-16 23:00:00 25 5 Norte 11 Norte 0 -- -- 26
2020-11-16 22:00:00 25.1 8 Norte 11 Norte 0 -- -- 27
2020-11-16 21:00:00 24.8 4 Nordeste 9 Norte 0 -- -- 28
2020-11-16 20:00:00 25.4 4 Norte 9 Norte 0 -- -- 28
2020-11-16 19:00:00 25.9 5 Norte 14 Sudoeste 0 -- -- 30
2020-11-16 18:00:00 27.7 11 Sur 21 Sur 0 -- -- 30
2020-11-16 17:00:00 31.6 10 Sudoeste 26 Sur 0 -- -- 21
2020-11-16 16:00:00 31.7 13 Sudoeste 28 Sur 0 -- -- 21
2020-11-16 15:00:00 30.9 15 Oeste 30 Sur 0 -- -- 22
2020-11-16 14:00:00 33.1 17 Sudoeste 34 Sur 0 -- -- 21
2020-11-16 13:00:00 31.9 15 Sur 36 Sudoeste 0 -- -- 21
2020-11-16 12:00:00 31.3 14 Sudoeste 32 Sudoeste 0 -- -- 26
2020-11-16 11:00:00 30.9 13 Sur 23 Sur 0 -- -- 24
2020-11-16 10:00:00 26.6 3 Este 22 Sur 0 -- -- 33
2020-11-16 09:00:00 23.2 7 Norte 11 Nordeste 0 -- -- 33
2020-11-16 08:00:00 21.4 5 Nordeste 12 Sudoeste 0 -- -- 37
2020-11-16 07:00:00 24.2 9 Norte 26 Sur 0 -- -- 32
2020-11-16 06:00:00 22 4 Norte 12 Norte 0 -- -- 31
2020-11-16 05:00:00 22.3 7 Norte 11 Norte 0 -- -- 31
2020-11-16 04:00:00 21.9 0 Calma 10 Norte 0 -- -- 31
2020-11-16 03:00:00 22.2 4 Sudeste 9 Sudeste 0 -- -- 31
2020-11-16 02:00:00 23.6 7 Norte 12 Nordeste 0 -- -- 28
2020-11-16 01:00:00 21 4 Nordeste 9 Norte 0 -- -- 40
2020-11-16 00:00:00 23.1 4 Norte 13 Norte 0 -- -- 29
2020-11-15 23:00:00 22.6 3 Norte 9 Nordeste 0 -- -- 33
2020-11-15 22:00:00 22.8 0 Calma 8 Norte 0 -- -- 36
2020-11-15 21:00:00 22.9 4 Norte 10 Norte 0 -- -- 39
2020-11-15 20:00:00 22.6 0 Calma 8 Norte 0 -- -- 54
2020-11-15 19:00:00 21.9 4 Norte 8 Sur 0 -- -- 68
2020-11-15 18:00:00 24.4 4 Sur 14 Sur 0 -- -- 57
2020-11-15 17:00:00 26.8 13 Sur 18 Sur 0 -- -- 60
2020-11-15 16:00:00 27.7 10 Sur 17 Sur 0 -- -- 55
2020-11-15 15:00:00 28.4 13 Sur 26 Sur 0 -- -- 50
2020-11-15 14:00:00 29.3 20 Sur 27 Sur 0 -- -- 53
2020-11-15 13:00:00 29.8 18 Sur 24 Sur 0 -- -- 36
2020-11-15 12:00:00 28.6 13 Sur 18 Sur 0 -- -- 45
2020-11-15 11:00:00 26.2 9 Sur 18 Sur 0 -- -- 40
2020-11-15 10:00:00 23.2 0 Calma 6 Norte 0 -- -- 38
2020-11-15 09:00:00 21.5 2 Nordeste 9 Norte 0 -- -- 42
2020-11-15 08:00:00 20.5 5 Nordeste 10 Norte 0 -- -- 43
2020-11-15 07:00:00 20.8 5 Nordeste 13 Norte 0 -- -- 44
2020-11-15 06:00:00 20.2 6 Nordeste 13 Norte 0 -- -- 47
2020-11-15 05:00:00 19.7 4 Norte 12 Nordeste 0 -- -- 52
2020-11-15 04:00:00 19 3 Norte 10 Nordeste 0 -- -- 63
2020-11-15 03:00:00 20.2 4 Nordeste 14 Norte 0 -- -- 57
2020-11-15 02:00:00 19.7 5 Norte 10 Norte 0 -- -- 72
2020-11-15 01:00:00 20.4 3 Nordeste 6 Norte 0 -- -- 69
2020-11-15 00:00:00 20.6 4 Norte 18 Sur 0 -- -- 69
2020-11-14 23:00:00 21.2 19 Sur 26 Sur 0 -- -- 70
2020-11-14 22:00:00 22.1 7 Norte 12 Nordeste 0 -- -- 50
2020-11-14 21:00:00 22.3 4 Nordeste 10 Nordeste 0 -- -- 49
2020-11-14 20:00:00 22.5 4 Sudeste 8 Sur 0 -- -- 53
2020-11-14 19:00:00 22.3 3 Norte 5 Este 0 -- -- 63
2020-11-14 18:00:00 22.7 2 Sudoeste 15 Sur 0 -- -- 69
2020-11-14 17:00:00 24.6 11 Sur 26 Sur 0 -- -- 55
2020-11-14 16:00:00 26.8 13 Sur 23 Sur 0 -- -- 39
2020-11-14 15:00:00 27.7 6 Sur 26 Sur 0 -- -- 40
2020-11-14 14:00:00 25.6 3 Sur 36 Sur 0 -- -- 45
2020-11-14 13:00:00 26.5 6 Sudoeste 38 Sur 0 -- -- 36
2020-11-14 12:00:00 26.9 3 Norte 49 Sur 0 -- -- 30
2020-11-14 11:00:00 26.9 5 Norte 10 Sudoeste 0 -- -- 25
2020-11-14 10:00:00 24.7 6 Norte 14 Norte 0 -- -- 30
2020-11-14 09:00:00 21.9 5 Norte 15 Sur 0 -- -- 43
2020-11-14 08:00:00 23.8 6 Norte 11 Norte 0 -- -- 29
2020-11-14 07:00:00 24.1 4 Norte 11 Norte 0 -- -- 27
2020-11-14 06:00:00 23.8 5 Norte 8 Norte 0 -- -- 28
2020-11-14 05:00:00 24.3 5 Nordeste 10 Este 0 -- -- 27
2020-11-14 04:00:00 23.7 5 Nordeste 10 Norte 0 -- -- 30
2020-11-14 03:00:00 23.6 2 Norte 6 Norte 0 -- -- 29
2020-11-14 02:00:00 23.7 0 Calma 9 Nordeste 0 -- -- 30
2020-11-14 01:00:00 23.2 0 Calma 10 Norte 0 -- -- 30
2020-11-14 00:00:00 23.9 3 Nordeste 18 Este 0 -- -- 29
2020-11-13 23:00:00 24.7 6 Nordeste 13 Este 0 -- -- 27
2020-11-13 22:00:00 22.8 4 Norte 16 Nordeste 0 -- -- 47
2020-11-13 21:00:00 24 6 Norte 9 Norte 0 -- -- 33
2020-11-13 20:00:00 23.3 4 Norte 17 Sur 0 -- -- 47
2020-11-13 19:00:00 24.6 3 Oeste 18 Sudeste 0 -- -- 37
2020-11-13 18:00:00 26 4 Noroeste 11 Norte 0 -- -- 28
2020-11-13 17:00:00 24.7 8 Nordeste 14 Norte 0 -- -- 40
2020-11-13 16:00:00 24.6 3 Noroeste 13 Sur 0 -- -- 52
2020-11-13 15:00:00 25.8 7 Sudeste 14 Sudoeste 0 -- -- 52
2020-11-13 14:00:00 25 0 Calma 17 Sudoeste 0 -- -- 56
2020-11-13 13:00:00 24.9 15 Sur 21 Sur 0 -- -- 65
2020-11-13 12:00:00 22.8 0 Calma 5 Norte 0 -- -- 69
2020-11-13 11:00:00 21.5 0 Calma 11 Sur 0 -- -- 76
2020-11-13 10:00:00 20.7 0 Calma 4 Oeste 0 -- -- 78
2020-11-13 09:00:00 19.9 0 Calma 9 Norte 0 -- -- 76
2020-11-13 08:00:00 18.8 4 Sur 10 Norte 0 -- -- 76
2020-11-13 07:00:00 18.9 3 Sur 8 Norte 0 -- -- 74
2020-11-13 06:00:00 19.2 3 Sur 6 Nordeste 0 -- -- 67
2020-11-13 05:00:00 19.4 5 Norte 11 Norte 0 -- -- 65
2020-11-13 04:00:00 19.4 4 Sudeste 10 Sudeste 0 -- -- 74
2020-11-13 03:00:00 19.4 0 Calma 11 Sudoeste 0 -- -- 77
2020-11-13 02:00:00 21.2 5 Norte 8 Norte 0 -- -- 48
2020-11-13 01:00:00 20 3 Este 13 Sur 0 -- -- 81
2020-11-13 00:00:00 19.9 0 Calma 7 Sudoeste 0 -- -- 79
2020-11-12 23:00:00 20.2 4 Norte 15 Sur 0 -- -- 83
2020-11-12 22:00:00 21 2 Este 5 Sur 0 -- -- 77
2020-11-12 21:00:00 21.6 2 Norte 5 Norte 0 -- -- 72
2020-11-12 20:00:00 21.4 6 Sudoeste 9 Sudoeste 0 -- -- 79
2020-11-12 19:00:00 21.4 0 Calma 17 Sur 0 -- -- 80
2020-11-12 18:00:00 21.9 8 Sur 15 Sur 0 -- -- 75
2020-11-12 17:00:00 23.8 3 Sudoeste 23 Sur 0 -- -- 71
2020-11-12 16:00:00 25.6 8 Sur 19 Sudoeste 0 -- -- 61
2020-11-12 15:00:00 26.7 11 Sur 32 Sur 0 -- -- 51
2020-11-12 14:00:00 27.8 20 Sur 33 Sur 0 -- -- 57
2020-11-12 13:00:00 24.8 4 Oeste 25 Sudeste 0 -- -- 67
2020-11-12 12:00:00 24.2 17 Sur 27 Sur 0 -- -- 69
2020-11-12 11:00:00 23.3 3 Sur 15 Sur 0 -- -- 72
2020-11-12 10:00:00 21.5 2 Oeste 10 Sur 0 -- -- 80
2020-11-12 09:00:00 19.3 0 Calma 5 Sudeste 0 -- -- 90
2020-11-12 08:00:00 18.2 2 Norte 5 Norte 0 -- -- 90
2020-11-12 07:00:00 18.5 0 Calma 21 Sur 0 -- -- 89
2020-11-12 06:00:00 18.7 8 Norte 36 Sudoeste 0 -- -- 88
2020-11-12 05:00:00 18.7 8 Sur 29 Sur 0 -- -- 88
2020-11-12 04:00:00 18.8 7 Sur 22 Sur 0 -- -- 84
2020-11-12 03:00:00 18.6 2 Norte 10 Sur 0 -- -- 91
2020-11-12 02:00:00 18.6 0 Calma 21 Sur 0 -- -- 91
2020-11-12 01:00:00 18.5 11 Sur 20 Sur 0 -- -- 91
2020-11-12 00:00:00 18.6 6 Noroeste 12 Norte 0 -- -- 91
2020-11-11 23:00:00 18.8 3 Norte 23 Sur 0 -- -- 90
2020-11-11 22:00:00 18.8 8 Sur 14 Sudeste 0 -- -- 89
2020-11-11 21:00:00 19.2 13 Sur 19 Sur 0 -- -- 86
2020-11-11 20:00:00 19.8 8 Norte 20 Sur 0 -- -- 84
2020-11-11 19:00:00 20.5 3 Nordeste 14 Sur 0 -- -- 81
2020-11-11 18:00:00 20.9 8 Sur 17 Sur 0 -- -- 78
2020-11-11 17:00:00 22.3 8 Sur 22 Sur 0 -- -- 73
2020-11-11 16:00:00 23.9 9 Sur 25 Sur 0 -- -- 70
2020-11-11 15:00:00 25 16 Sur 26 Sur 0 -- -- 66
2020-11-11 14:00:00 25.3 15 Sur 22 Sur 0 -- -- 64
2020-11-11 13:00:00 24.1 17 Sur 25 Sur 0 -- -- 68
2020-11-11 12:00:00 24.2 10 Sur 22 Sur 0 -- -- 67
2020-11-11 11:00:00 23.7 14 Sur 20 Sur 0 -- -- 66
2020-11-11 10:00:00 21.2 6 Sur 20 Sur 0 -- -- 70
2020-11-11 09:00:00 18 3 Este 8 Nordeste 0 -- -- 76
2020-11-11 08:00:00 16.8 0 Calma 9 Norte 0 -- -- 74
2020-11-11 07:00:00 16.5 2 Este 8 Nordeste 0 -- -- 71
2020-11-11 06:00:00 16.5 5 Nordeste 9 Norte 0 -- -- 76
2020-11-11 05:00:00 16.5 4 Norte 9 Nordeste 0 -- -- 79
2020-11-11 04:00:00 16.4 2 Norte 9 Norte 0 -- -- 80
2020-11-11 03:00:00 16.8 5 Norte 13 Norte 0 -- -- 82
2020-11-11 02:00:00 17 4 Este 10 Norte 0 -- -- 84
2020-11-11 01:00:00 17 6 Norte 9 Norte 0 -- -- 85
2020-11-11 00:00:00 17 5 Nordeste 10 Norte 0 -- -- 85
2020-11-10 23:00:00 17.3 5 Nordeste 8 Nordeste 0 -- -- 86
2020-11-10 22:00:00 17.5 0 Calma 9 Norte 0 -- -- 84
2020-11-10 21:00:00 17.7 0 Calma 4 Norte 0 -- -- 83
2020-11-10 20:00:00 18.1 0 Calma 7 Sur 0 -- -- 82
2020-11-10 19:00:00 19.1 7 Sur 15 Sur 0 -- -- 77
2020-11-10 18:00:00 20.5 13 Sur 19 Sur 0 -- -- 71
2020-11-10 17:00:00 23.4 15 Sur 23 Sur 0 -- -- 63
2020-11-10 16:00:00 24.4 17 Sur 29 Sur 0 -- -- 61
2020-11-10 15:00:00 25 21 Sur 30 Sur 0 -- -- 59
2020-11-10 14:00:00 25.3 22 Sur 30 Sur 0 -- -- 59
2020-11-10 13:00:00 24.6 17 Sur 28 Sudoeste 0 -- -- 60
2020-11-10 12:00:00 23.9 18 Sur 24 Sur 0 -- -- 62
2020-11-10 11:00:00 22.3 10 Sur 17 Sur 0 -- -- 64
2020-11-10 10:00:00 20.1 3 Sudeste 6 Sur 0 -- -- 69
2020-11-10 09:00:00 16.5 4 Nordeste 9 Norte 0 -- -- 81
2020-11-10 08:00:00 16.2 4 Norte 12 Norte 0 -- -- 82
2020-11-10 07:00:00 16.3 5 Nordeste 12 Norte 0 -- -- 83
2020-11-10 06:00:00 16.4 9 Norte 11 Norte 0 -- -- 84
2020-11-10 05:00:00 16.3 5 Norte 8 Norte 0 -- -- 83
2020-11-10 04:00:00 16.4 3 Norte 7 Norte 0 -- -- 82
2020-11-10 03:00:00 17.1 6 Norte 9 Norte 0 -- -- 80
2020-11-10 02:00:00 16.9 4 Norte 11 Norte 0 -- -- 79
2020-11-10 01:00:00 18.3 3 Norte 6 Oeste 0 -- -- 76
2020-11-10 00:00:00 18.1 0 Calma 5 Norte 0 -- -- 78
2020-11-09 23:00:00 18 2 Sudeste 5 Este 0 -- -- 78
2020-11-09 22:00:00 18.1 0 Calma 5 Norte 0 -- -- 77
2020-11-09 21:00:00 17.8 0 Calma 6 Norte 0 -- -- 76
2020-11-09 20:00:00 18.3 0 Calma 6 Norte 0 -- -- 74
2020-11-09 19:00:00 19.3 0 Calma 12 Sur 0 -- -- 72
2020-11-09 18:00:00 20.8 9 Sur 20 Sur 0 -- -- 66
2020-11-09 17:00:00 22.1 17 Sur 27 Sur 0 -- -- 59
2020-11-09 16:00:00 24.6 19 Sur 31 Sur 0 -- -- 51
2020-11-09 15:00:00 24.4 21 Sur 28 Sur 0 -- -- 51
2020-11-09 14:00:00 25.2 17 Sur 27 Sur 0 -- -- 54
2020-11-09 13:00:00 22.6 17 Sur 24 Sur 0 -- -- 63
2020-11-09 12:00:00 21 13 Sur 23 Sur 0 -- -- 66
2020-11-09 11:00:00 19.7 9 Sur 17 Sur 0 -- -- 71
2020-11-09 10:00:00 20.2 5 Sur 8 Sur 0 -- -- 68
2020-11-09 09:00:00 16.3 2 Nordeste 11 Nordeste 0 -- -- 75
2020-11-09 08:00:00 15.8 6 Norte 12 Norte 0 -- -- 71
2020-11-09 07:00:00 15.9 9 Norte 14 Nordeste 0 -- -- 73
2020-11-09 06:00:00 16.5 9 Norte 13 Nordeste 0 -- -- 66
2020-11-09 05:00:00 16.4 5 Nordeste 15 Nordeste 0 -- -- 65
2020-11-09 04:00:00 16.9 11 Norte 14 Nordeste 0 -- -- 67
2020-11-09 03:00:00 16.7 6 Norte 12 Norte 0 -- -- 70
2020-11-09 02:00:00 17.1 6 Norte 13 Norte 0 -- -- 70
2020-11-09 01:00:00 17.7 7 Norte 17 Nordeste 0 -- -- 67
2020-11-09 00:00:00 18.4 9 Nordeste 22 Nordeste 0 -- -- 66
2020-11-08 23:00:00 18.3 4 Nordeste 14 Nordeste 0 -- -- 70
2020-11-08 22:00:00 18 9 Norte 17 Nordeste 0 -- -- 73
2020-11-08 21:00:00 18.3 10 Norte 14 Norte 0 -- -- 75
2020-11-08 20:00:00 18.8 8 Nordeste 13 Norte 0 -- -- 73
2020-11-08 19:00:00 19.5 7 Sur 14 Sur 0 -- -- 76
2020-11-08 18:00:00 20.2 12 Sur 19 Sur 0 -- -- 73
2020-11-08 17:00:00 21.6 13 Sur 23 Sur 0 -- -- 68
2020-11-08 16:00:00 23.4 17 Sur 27 Sur 0 -- -- 62
2020-11-08 15:00:00 24.9 19 Sur 28 Sur 0 -- -- 57
2020-11-08 14:00:00 25.2 19 Sur 28 Sur 0 -- -- 58
2020-11-08 13:00:00 23.9 19 Sur 26 Sur 0 -- -- 61
2020-11-08 12:00:00 22.5 15 Sur 24 Sur 0 -- -- 66
2020-11-08 11:00:00 22.2 15 Sur 20 Sur 0 -- -- 65
2020-11-08 10:00:00 20.4 6 Este 14 Nordeste 0 -- -- 68
2020-11-08 09:00:00 17.7 4 Nordeste 9 Norte 0 -- -- 77
2020-11-08 08:00:00 16.7 3 Norte 8 Norte 0 -- -- 79
2020-11-08 07:00:00 16.2 5 Norte 10 Norte 0 -- -- 81
2020-11-08 06:00:00 16.4 7 Norte 10 Norte 0 -- -- 82
2020-11-08 05:00:00 16.1 6 Norte 10 Nordeste 0 -- -- 84
2020-11-08 04:00:00 16.2 4 Norte 11 Norte 0 -- -- 84
2020-11-08 03:00:00 16.2 4 Norte 9 Norte 0 -- -- 84
2020-11-08 02:00:00 16.6 6 Norte 8 Norte 0 -- -- 85
2020-11-08 01:00:00 16.9 3 Nordeste 9 Nordeste 0 -- -- 85
2020-11-08 00:00:00 17 3 Norte 7 Norte 0 -- -- 85
2020-11-07 23:00:00 17.7 4 Norte 6 Sudeste 0 -- -- 83
2020-11-07 22:00:00 18.7 2 Sur 10 Sur 0 -- -- 80
2020-11-07 21:00:00 18.9 8 Sur 12 Sur 0 -- -- 80
2020-11-07 20:00:00 19.3 9 Sur 14 Sur 0 -- -- 77
2020-11-07 19:00:00 19.7 12 Sur 21 Sur 0 -- -- 74
2020-11-07 18:00:00 20.4 14 Sur 24 Sur 0 -- -- 71
2020-11-07 17:00:00 22.6 15 Sur 25 Sur 0 -- -- 63
2020-11-07 16:00:00 25.4 18 Sur 30 Sur 0 -- -- 54
2020-11-07 15:00:00 25.6 17 Sur 27 Sur 0 -- -- 52
2020-11-07 14:00:00 24.5 19 Sur 26 Sur 0 -- -- 53
2020-11-07 13:00:00 24 18 Sur 24 Sur 0 -- -- 54
2020-11-07 12:00:00 22.2 12 Sur 22 Sur 0 -- -- 60
2020-11-07 11:00:00 23.2 11 Sur 17 Sudeste 0 -- -- 56
2020-11-07 10:00:00 20.3 2 Sur 6 Sur 0 -- -- 66
2020-11-07 09:00:00 17.1 2 Este 10 Norte 0 -- -- 76
2020-11-07 08:00:00 15.8 5 Norte 13 Norte 0 -- -- 79
2020-11-07 07:00:00 15.6 5 Norte 12 Norte 0 -- -- 80
2020-11-07 06:00:00 16 7 Nordeste 13 Norte 0 -- -- 79
2020-11-07 05:00:00 16.1 8 Norte 13 Norte 0 -- -- 79
2020-11-07 04:00:00 16.3 5 Norte 13 Norte 0 -- -- 77
2020-11-07 03:00:00 16.1 7 Nordeste 13 Nordeste 0 -- -- 78
2020-11-07 02:00:00 16.1 4 Nordeste 12 Nordeste 0 -- -- 77
2020-11-07 01:00:00 16.7 6 Norte 12 Norte 0 -- -- 76
2020-11-07 00:00:00 16.5 4 Norte 9 Nordeste 0 -- -- 77
2020-11-06 23:00:00 17.4 5 Norte 11 Este 0 -- -- 77
2020-11-06 22:00:00 18.2 4 Sudeste 14 Nordeste 0 -- -- 75
2020-11-06 21:00:00 18.4 3 Norte 15 Este 0 -- -- 77
2020-11-06 20:00:00 18.2 8 Sur 16 Sur 0 -- -- 79
2020-11-06 19:00:00 18.9 8 Sur 16 Sur 0 -- -- 76
2020-11-06 18:00:00 20 10 Sur 24 Sur 0 -- -- 73
2020-11-06 17:00:00 22.9 10 Sur 22 Sur 0 -- -- 64
2020-11-06 16:00:00 22.6 13 Sur 28 Sur 0.2 -- -- 68
2020-11-06 15:00:00 22.4 16 Sur 27 Sur 0 -- -- 67
2020-11-06 14:00:00 22 17 Sur 27 Sur 0 -- -- 70
2020-11-06 13:00:00 21.7 13 Sur 31 Sur 0 -- -- 78
2020-11-06 12:00:00 19.8 15 Sur 51 Sur 1.4 -- -- 89
2020-11-06 11:00:00 20.4 26 Sur 49 Sur 0.4 -- -- 74
2020-11-06 10:00:00 19.7 27 Sur 45 Sur 0 -- -- 74
2020-11-06 09:00:00 18.4 26 Sur 37 Sur 0 -- -- 85
2020-11-06 08:00:00 17.4 10 Sudeste 46 Sur 0.4 -- -- 88
2020-11-06 07:00:00 18.9 27 Sur 54 Sur 0 -- -- 75
2020-11-06 06:00:00 18.8 28 Sur 45 Sudeste 0 -- -- 74
2020-11-06 05:00:00 18.7 24 Sur 44 Sur 0 -- -- 72
2020-11-06 04:00:00 18.6 24 Sur 39 Sur 0 -- -- 74
2020-11-06 03:00:00 18.3 18 Sur 33 Sur 0 -- -- 72
2020-11-06 02:00:00 18.4 22 Sur 33 Sur 0 -- -- 72
2020-11-06 01:00:00 18.4 18 Sur 32 Sur 0 -- -- 71
2020-11-06 00:00:00 18.4 12 Sur 23 Sur 0 -- -- 73
2020-11-05 23:00:00 18.4 11 Sur 21 Sur 0 -- -- 73
2020-11-05 22:00:00 18.7 13 Sur 22 Sur 0 -- -- 73
2020-11-05 21:00:00 19 13 Sur 19 Sur 0 -- -- 74
2020-11-05 20:00:00 19.1 8 Sur 17 Sur 0 -- -- 72
2020-11-05 19:00:00 19.3 10 Sur 19 Sur 0 -- -- 68
2020-11-05 18:00:00 20.5 12 Sur 24 Sur 0 -- -- 65
2020-11-05 17:00:00 22.7 14 Sur 23 Sur 0 -- -- 54
2020-11-05 16:00:00 23.6 15 Sur 27 Sur 0 -- -- 50
2020-11-05 15:00:00 25.7 19 Sur 31 Sur 0 -- -- 45
2020-11-05 14:00:00 25.9 22 Sur 31 Sur 0 -- -- 48
2020-11-05 13:00:00 24.4 21 Sur 35 Sur 0 -- -- 51
2020-11-05 12:00:00 23.5 26 Sur 33 Sur 0 -- -- 56
2020-11-05 11:00:00 22.6 21 Sur 28 Sur 0 -- -- 53
2020-11-05 10:00:00 22.4 14 Sur 21 Sudoeste 0 -- -- 57
2020-11-05 09:00:00 18.6 3 Sur 12 Norte 0 -- -- 64
2020-11-05 08:00:00 17.3 8 Nordeste 12 Nordeste 0 -- -- 64
2020-11-05 07:00:00 17.2 6 Nordeste 10 Nordeste 0 -- -- 66
2020-11-05 06:00:00 17.4 7 Este 14 Nordeste 0 -- -- 68
2020-11-05 05:00:00 17.2 8 Nordeste 17 Nordeste 0 -- -- 70
2020-11-05 04:00:00 17.3 8 Nordeste 22 Este 0 -- -- 70
2020-11-05 03:00:00 17.2 9 Este 22 Este 0 -- -- 72
2020-11-05 02:00:00 17.4 8 Este 22 Norte 0 -- -- 72
2020-11-05 01:00:00 17.7 13 Norte 21 Noroeste 0 -- -- 74
2020-11-05 00:00:00 17.8 9 Norte 26 Norte 0 -- -- 76
2020-11-04 23:00:00 18 13 Nordeste 30 Nordeste 0 -- -- 76
2020-11-04 22:00:00 18 16 Nordeste 27 Nordeste 0 -- -- 76
2020-11-04 21:00:00 17.9 14 Nordeste 26 Nordeste 0 -- -- 80
2020-11-04 20:00:00 18.3 13 Norte 25 Nordeste 0 -- -- 79
2020-11-04 19:00:00 18.8 13 Norte 28 Noroeste 0 -- -- 75
2020-11-04 18:00:00 19.1 16 Nordeste 25 Este 0 -- -- 78
2020-11-04 17:00:00 20.7 8 Sur 17 Norte 0 -- -- 73
2020-11-04 16:00:00 22.4 10 Sur 24 Sur 0 -- -- 69
2020-11-04 15:00:00 23.5 19 Sur 29 Sur 0 -- -- 65
2020-11-04 14:00:00 24.9 13 Sur 24 Sur 0 -- -- 63
2020-11-04 13:00:00 25.5 19 Sur 26 Sur 0 -- -- 63
2020-11-04 12:00:00 24 16 Sur 24 Sur 0 -- -- 67
2020-11-04 11:00:00 23.6 13 Sur 19 Sur 0 -- -- 67
2020-11-04 10:00:00 22.3 4 Sur 9 Sur 0 -- -- 67
2020-11-04 09:00:00 18.9 0 Calma 10 Norte 0 -- -- 78
2020-11-04 08:00:00 17.1 3 Nordeste 8 Nordeste 0 -- -- 82
2020-11-04 07:00:00 17.2 2 Nordeste 8 Nordeste 0 -- -- 82
2020-11-04 06:00:00 17.2 6 Norte 13 Norte 0 -- -- 84
2020-11-04 05:00:00 17.4 11 Norte 13 Norte 0 -- -- 83
2020-11-04 04:00:00 17.2 6 Nordeste 8 Nordeste 0 -- -- 79
2020-11-04 03:00:00 17.2 4 Nordeste 7 Norte 0 -- -- 77
2020-11-04 02:00:00 17.3 3 Norte 8 Norte 0 -- -- 75
2020-11-04 01:00:00 18 4 Nordeste 9 Norte 0 -- -- 76
2020-11-04 00:00:00 18.6 0 Calma 18 Norte 0 -- -- 74
2020-11-03 23:00:00 19.7 7 Norte 18 Norte 0 -- -- 69
2020-11-03 22:00:00 19.5 8 Norte 19 Nordeste 0 -- -- 73
2020-11-03 21:00:00 20.2 14 Nordeste 26 Nordeste 0 -- -- 71
2020-11-03 20:00:00 20.5 15 Este 30 Nordeste 0 -- -- 67
2020-11-03 19:00:00 21.1 13 Nordeste 27 Noroeste 0 -- -- 64
2020-11-03 18:00:00 21.6 18 Norte 33 Norte 0 -- -- 64
2020-11-03 17:00:00 23.2 16 Norte 31 Norte 0 -- -- 61
2020-11-03 16:00:00 23.3 21 Norte 28 Norte 0 -- -- 61
2020-11-03 15:00:00 27.3 20 Sur 25 Sur 0 -- -- 54
2020-11-03 14:00:00 27.1 16 Sur 29 Sur 0 -- -- 54
2020-11-03 13:00:00 26 21 Sur 27 Sur 0 -- -- 58
2020-11-03 12:00:00 23.8 17 Sur 28 Sur 0 -- -- 65
2020-11-03 11:00:00 24.8 14 Sur 23 Sur 0 -- -- 60
2020-11-03 10:00:00 22.4 7 Sur 11 Sudeste 0 -- -- 64
2020-11-03 09:00:00 19.2 3 Nordeste 5 Nordeste 0 -- -- 64
2020-11-03 08:00:00 18.4 0 Calma 12 Oeste 0 -- -- 67
2020-11-03 07:00:00 19.7 6 Sudeste 27 Este 0 -- -- 65
2020-11-03 06:00:00 20.3 14 Norte 36 Norte 0 -- -- 54
2020-11-03 05:00:00 20.6 13 Nordeste 28 Nordeste 0 -- -- 51
2020-11-03 04:00:00 20.7 15 Nordeste 35 Norte 0 -- -- 51
2020-11-03 03:00:00 20.3 18 Norte 33 Norte 0 -- -- 57
2020-11-03 02:00:00 19.3 12 Nordeste 20 Nordeste 0 -- -- 64
2020-11-03 01:00:00 19.6 10 Norte 25 Nordeste 0 -- -- 66
2020-11-03 00:00:00 19.9 5 Nordeste 26 Este 0 -- -- 66
2020-11-02 23:00:00 20.3 13 Nordeste 21 Nordeste 0 -- -- 63
2020-11-02 22:00:00 20.6 13 Nordeste 21 Nordeste 0 -- -- 61
2020-11-02 21:00:00 20.7 9 Norte 23 Norte 0 -- -- 61
2020-11-02 20:00:00 21.3 15 Nordeste 23 Nordeste 0 -- -- 55
2020-11-02 19:00:00 21.6 4 Sudeste 12 Este 0 -- -- 66
2020-11-02 18:00:00 23.5 11 Sur 17 Sur 0 -- -- 56
2020-11-02 17:00:00 24.6 12 Nordeste 28 Este 0 -- -- 48
2020-11-02 16:00:00 27.6 15 Sur 28 Sur 0 -- -- 52
2020-11-02 15:00:00 27.4 19 Sur 31 Sur 0 -- -- 51
2020-11-02 14:00:00 28.3 21 Sur 28 Sur 0 -- -- 46
2020-11-02 13:00:00 25.7 12 Sur 20 Sur 0 -- -- 54
2020-11-02 12:00:00 28.2 15 Sur 21 Sur 0 -- -- 47
2020-11-02 11:00:00 25.9 8 Sur 13 Sudoeste 0 -- -- 41
2020-11-02 10:00:00 24.5 4 Sur 8 Sur 0 -- -- 29
2020-11-02 09:00:00 22.4 3 Nordeste 7 Norte 0 -- -- 30
2020-11-02 08:00:00 20.2 3 Nordeste 8 Norte 0 -- -- 30
2020-11-02 07:00:00 20.4 3 Nordeste 7 Norte 0 -- -- 28
2020-11-02 06:00:00 21.3 3 Norte 12 Nordeste 0 -- -- 27
2020-11-02 05:00:00 21.1 5 Nordeste 10 Norte 0 -- -- 28
2020-11-02 04:00:00 21.6 6 Norte 15 Norte 0 -- -- 30
2020-11-02 03:00:00 21.4 5 Norte 12 Norte 0 -- -- 33
2020-11-02 02:00:00 21.4 4 Norte 9 Norte 0 -- -- 38
2020-11-02 01:00:00 22 4 Norte 10 Norte 0 -- -- 41
2020-11-02 00:00:00 21.3 4 Sudoeste 19 Sudoeste 0 -- -- 49
2020-11-01 23:00:00 22.4 9 Sur 24 Noroeste 0 -- -- 51
2020-11-01 22:00:00 23.3 8 Sur 30 Nordeste 0 -- -- 41
2020-11-01 21:00:00 22.3 6 Sudeste 15 Sur 0 -- -- 50
2020-11-01 20:00:00 22.5 0 Calma 9 Nordeste 0 -- -- 50
2020-11-01 19:00:00 23.6 0 Calma 10 Sur 0 -- -- 48
2020-11-01 18:00:00 25.9 5 Sur 21 Sur 0 -- -- 41
2020-11-01 17:00:00 29.4 18 Sur 25 Sur 0 -- -- 33
2020-11-01 16:00:00 30.6 17 Sur 28 Sur 0 -- -- 30
2020-11-01 15:00:00 32.2 20 Sur 28 Sur 0 -- -- 24
2020-11-01 14:00:00 32.5 18 Sur 28 Sur 0 -- -- 23
2020-11-01 13:00:00 32.3 19 Sur 29 Sur 0 -- -- 22
2020-11-01 12:00:00 31.8 15 Sur 22 Sur 0 -- -- 23
2020-11-01 11:00:00 29.8 13 Sur 19 Sur 0 -- -- 26
2020-11-01 10:00:00 27.1 6 Sur 10 Sur 0 -- -- 26
2020-11-01 09:00:00 24.4 0 Calma 11 Nordeste 0 -- -- 26
2020-11-01 08:00:00 22.9 7 Nordeste 11 Norte 0 -- -- 28
2020-11-01 07:00:00 22.8 4 Norte 13 Norte 0 -- -- 27
2020-11-01 06:00:00 23.1 6 Norte 12 Nordeste 0 -- -- 27
2020-11-01 05:00:00 23.1 3 Nordeste 12 Norte 0 -- -- 27
2020-11-01 04:00:00 23.5 5 Norte 15 Norte 0 -- -- 26
2020-11-01 03:00:00 22.7 6 Nordeste 11 Norte 0 -- -- 27
2020-11-01 02:00:00 24 3 Sudoeste 16 Norte 0 -- -- 26
2020-11-01 01:00:00 24.3 10 Nordeste 15 Norte 0 -- -- 25
2020-11-01 00:00:00 24.6 6 Norte 13 Norte 0 -- -- 26
2020-10-31 23:00:00 23.6 3 Nordeste 12 Norte 0 -- -- 28
2020-10-31 22:00:00 23.7 3 Este 17 Norte 0 -- -- 28
2020-10-31 21:00:00 24 9 Norte 13 Norte 0 -- -- 29
2020-10-31 20:00:00 24.1 3 Nordeste 8 Norte 0 -- -- 32
2020-10-31 19:00:00 24.6 4 Norte 5 Norte 0 -- -- 38
2020-10-31 18:00:00 26.5 5 Sur 18 Sur 0 -- -- 37
2020-10-31 17:00:00 30 15 Sur 27 Sur 0 -- -- 32
2020-10-31 16:00:00 31.5 19 Sur 30 Sur 0 -- -- 29
2020-10-31 15:00:00 32.4 20 Sur 28 Sur 0 -- -- 23
2020-10-31 14:00:00 32.8 17 Sur 27 Sur 0 -- -- 21
2020-10-31 13:00:00 32.6 19 Sur 27 Sur 0 -- -- 22
2020-10-31 12:00:00 31.2 15 Sur 26 Sur 0 -- -- 23
2020-10-31 11:00:00 29.7 16 Sur 24 Sur 0 -- -- 26
2020-10-31 10:00:00 28.2 8 Sur 13 Sudoeste 0 -- -- 31
2020-10-31 09:00:00 27.5 5 Norte 18 Norte 0 -- -- 18
2020-10-31 08:00:00 27.5 11 Norte 27 Norte 0 -- -- 18
2020-10-31 07:00:00 26.6 12 Nordeste 23 Norte 0 -- -- 19
2020-10-31 06:00:00 25.5 5 Nordeste 24 Este 0 -- -- 21
2020-10-31 05:00:00 26.2 8 Este 32 Noroeste 0 -- -- 21
2020-10-31 04:00:00 27.2 10 Noroeste 39 Noroeste 0 -- -- 21
2020-10-31 03:00:00 24.1 9 Norte 19 Sudeste 0 -- -- 26
2020-10-31 02:00:00 22.9 7 Sur 20 Este 0 -- -- 33
2020-10-31 01:00:00 21.4 4 Norte 11 Este 0 -- -- 42
2020-10-31 00:00:00 21 5 Norte 10 Norte 0 -- -- 45
2020-10-30 23:00:00 20.4 3 Norte 9 Norte 0 -- -- 59
2020-10-30 22:00:00 20.6 3 Nordeste 9 Norte 0 -- -- 60
2020-10-30 21:00:00 21.1 3 Norte 18 Sur 0 -- -- 63
2020-10-30 20:00:00 21.5 3 Norte 16 Sur 0 -- -- 47
2020-10-30 19:00:00 21.8 7 Norte 12 Nordeste 0 -- -- 62
2020-10-30 18:00:00 22.7 8 Sur 17 Sur 0 -- -- 66
2020-10-30 17:00:00 25.6 14 Sur 24 Sur 0 -- -- 58
2020-10-30 16:00:00 26.4 17 Sur 25 Sudoeste 0 -- -- 55
2020-10-30 15:00:00 26.5 20 Sur 28 Sur 0 -- -- 55
2020-10-30 14:00:00 26.7 19 Sur 27 Sur 0 -- -- 54
2020-10-30 13:00:00 26.4 19 Sur 26 Sur 0 -- -- 54
2020-10-30 12:00:00 25.5 17 Sur 24 Sur 0 -- -- 58
2020-10-30 11:00:00 24.8 14 Sur 19 Sur 0 -- -- 58
2020-10-30 10:00:00 22.1 6 Sur 15 Norte 0 -- -- 55
2020-10-30 09:00:00 19.5 6 Nordeste 20 Nordeste 0 -- -- 68
2020-10-30 08:00:00 18 9 Norte 21 Nordeste 0 -- -- 77
2020-10-30 07:00:00 17.8 10 Nordeste 19 Nordeste 0 -- -- 78
2020-10-30 06:00:00 16.2 3 Norte 6 Norte 0 -- -- 85
2020-10-30 05:00:00 16.5 5 Norte 6 Norte 0 -- -- 84
2020-10-30 04:00:00 16.6 0 Calma 6 Noroeste 0 -- -- 82
2020-10-30 03:00:00 16.9 0 Calma 5 Oeste 0 -- -- 81
2020-10-30 02:00:00 17.1 0 Calma 9 Sur 0 -- -- 79
2020-10-30 01:00:00 18 5 Sudoeste 13 Nordeste 0 -- -- 76
2020-10-30 00:00:00 18.1 3 Sur 21 Nordeste 0 -- -- 77
2020-10-29 23:00:00 18.8 10 Nordeste 21 Nordeste 0 -- -- 77
2020-10-29 22:00:00 18.9 8 Nordeste 18 Nordeste 0 -- -- 77
2020-10-29 21:00:00 19.1 9 Nordeste 22 Este 0 -- -- 76
2020-10-29 20:00:00 19.4 12 Nordeste 23 Este 0 -- -- 76
2020-10-29 19:00:00 19.8 11 Norte 20 Norte 0 -- -- 74
2020-10-29 18:00:00 20.4 18 Norte 26 Norte 0 -- -- 72
2020-10-29 17:00:00 21.4 18 Norte 28 Norte 0 -- -- 66
2020-10-29 16:00:00 22.8 13 Norte 30 Norte 0 -- -- 62
2020-10-29 15:00:00 22.4 21 Norte 33 Norte 0 -- -- 63
2020-10-29 14:00:00 22.7 19 Norte 36 Norte 0 -- -- 61
2020-10-29 13:00:00 22.9 13 Norte 27 Oeste 0 -- -- 58
2020-10-29 12:00:00 25.3 16 Sur 32 Sudoeste 0 -- -- 50
2020-10-29 11:00:00 22.6 6 Este 18 Norte 0 -- -- 56
2020-10-29 10:00:00 20 12 Noroeste 19 Norte 0 -- -- 64
2020-10-29 09:00:00 19.9 6 Nordeste 11 Nordeste 0 -- -- 67
2020-10-29 08:00:00 17.5 9 Norte 15 Nordeste 0 -- -- 75
2020-10-29 07:00:00 17.1 8 Norte 13 Nordeste 0 -- -- 74
2020-10-29 06:00:00 16.8 10 Norte 12 Norte 0 -- -- 74
2020-10-29 05:00:00 17.5 8 Nordeste 14 Nordeste 0 -- -- 71
2020-10-29 04:00:00 17.3 8 Norte 13 Nordeste 0 -- -- 71
2020-10-29 03:00:00 17.7 8 Norte 12 Nordeste 0 -- -- 71
2020-10-29 02:00:00 18.3 9 Nordeste 15 Nordeste 0 -- -- 68
2020-10-29 01:00:00 18.4 6 Nordeste 18 Este 0 -- -- 67
2020-10-29 00:00:00 18.8 8 Nordeste 19 Este 0 -- -- 68
2020-10-28 23:00:00 18.5 9 Nordeste 19 Nordeste 0 -- -- 70
2020-10-28 22:00:00 18.5 10 Nordeste 20 Norte 0 -- -- 68
2020-10-28 21:00:00 18.7 9 Nordeste 18 Nordeste 0 -- -- 64
2020-10-28 20:00:00 19.1 10 Nordeste 21 Norte 0 -- -- 65
2020-10-28 19:00:00 19.6 14 Norte 25 Noroeste 0 -- -- 63
2020-10-28 18:00:00 20.8 10 Noroeste 24 Noroeste 0 -- -- 62
2020-10-28 17:00:00 21.3 15 Norte 26 Norte 0 -- -- 59
2020-10-28 16:00:00 21.2 18 Norte 26 Norte 0 -- -- 61
2020-10-28 15:00:00 24.3 14 Sur 24 Sur 0 -- -- 55
2020-10-28 14:00:00 24.5 18 Sur 30 Sur 0 -- -- 52
2020-10-28 13:00:00 21.9 4 Norte 21 Norte 0 -- -- 59
2020-10-28 12:00:00 20.6 14 Norte 21 Norte 0 -- -- 63
2020-10-28 11:00:00 20.3 14 Norte 24 Noroeste 0 -- -- 62
2020-10-28 10:00:00 19.5 17 Norte 23 Norte 0 -- -- 66
2020-10-28 09:00:00 19.7 8 Nordeste 17 Este 0 -- -- 61
2020-10-28 08:00:00 18.8 8 Este 23 Norte 0 -- -- 62
2020-10-28 07:00:00 18.4 18 Norte 29 Norte 0 -- -- 65
2020-10-28 06:00:00 18.5 7 Norte 18 Nordeste 0 -- -- 65
2020-10-28 05:00:00 18.3 10 Norte 26 Norte 0 -- -- 65
2020-10-28 04:00:00 18.6 12 Norte 21 Norte 0 -- -- 66
2020-10-28 03:00:00 18.6 9 Nordeste 23 Norte 0 -- -- 67
2020-10-28 02:00:00 18.9 12 Norte 20 Noroeste 0 -- -- 65
2020-10-28 01:00:00 19 8 Nordeste 21 Este 0 -- -- 68
2020-10-28 00:00:00 19.1 12 Nordeste 21 Norte 0 -- -- 69